createdAt,value
2018-04-14T00:02:00.393Z,50.10
2018-04-14T00:04:28.841Z,48.53
2018-04-14T00:06:57.243Z,47.07
2018-04-14T00:09:25.655Z,44.80
2018-04-14T00:11:54.046Z,46.50
2018-04-14T00:14:22.463Z,44.17
2018-04-14T00:16:50.821Z,47.47
2018-04-14T00:19:19.289Z,48.00
2018-04-14T00:21:47.709Z,43.40
2018-04-14T00:24:16.123Z,43.13
2018-04-14T00:26:44.530Z,47.10
2018-04-14T00:29:12.901Z,44.40
2018-04-14T00:31:41.269Z,42.37
2018-04-14T00:34:09.637Z,41.00
2018-04-14T00:36:38.006Z,43.00
2018-04-14T00:39:06.426Z,42.83
2018-04-14T00:41:34.882Z,40.93
2018-04-14T00:44:03.248Z,41.67
2018-04-14T00:46:31.614Z,42.70
2018-04-14T00:48:59.980Z,42.20
2018-04-14T00:51:28.389Z,44.00
2018-04-14T00:53:56.773Z,43.50
2018-04-14T00:56:25.258Z,41.83
2018-04-14T00:58:53.641Z,41.60
2018-04-14T01:01:22.197Z,43.13
2018-04-14T01:03:50.618Z,43.63
2018-04-14T01:06:19.009Z,45.73
2018-04-14T01:08:47.368Z,42.80
2018-04-14T01:11:15.765Z,42.10
2018-04-14T01:13:44.203Z,42.47
2018-04-14T01:16:12.617Z,40.80
2018-04-14T01:18:41.155Z,41.90
2018-04-14T01:21:09.558Z,40.53
2018-04-14T01:23:37.937Z,42.20
2018-04-14T01:26:06.301Z,41.60
2018-04-14T01:28:34.669Z,40.07
2018-04-14T01:31:03.202Z,40.50
2018-04-14T01:33:31.561Z,37.20
2018-04-14T01:35:59.927Z,38.07
2018-04-14T01:38:28.291Z,37.27
2018-04-14T01:40:56.690Z,35.33
2018-04-14T01:43:25.227Z,37.50
2018-04-14T01:45:53.625Z,37.40
2018-04-14T01:48:22.100Z,36.03
2018-04-14T01:50:50.505Z,33.07
2018-04-14T01:53:18.988Z,34.50
2018-04-14T01:55:47.532Z,32.20
2018-04-14T01:58:16.129Z,30.53
2018-04-14T02:00:44.547Z,30.97
2018-04-14T02:03:12.953Z,32.00
2018-04-14T02:05:41.356Z,30.90
2018-04-14T02:08:09.820Z,31.23
2018-04-14T02:10:38.277Z,31.07
2018-04-14T02:13:06.676Z,30.80
2018-04-14T02:15:35.043Z,30.30
2018-04-14T02:18:03.522Z,31.23
2018-04-14T02:20:31.938Z,30.73
2018-04-14T02:23:00.317Z,29.83
2018-04-14T02:25:28.703Z,30.07
2018-04-14T02:27:57.103Z,30.93
2018-04-14T02:30:25.505Z,28.73
2018-04-14T02:32:53.985Z,28.40
2018-04-14T02:35:22.445Z,28.47
2018-04-14T02:37:50.885Z,28.70
2018-04-14T02:40:19.282Z,27.80
2018-04-14T02:42:47.649Z,28.50
2018-04-14T02:45:16.043Z,28.40
2018-04-14T02:47:44.492Z,28.80
2018-04-14T02:50:12.873Z,28.23
2018-04-14T02:52:41.388Z,26.80
2018-04-14T02:55:09.755Z,26.97
2018-04-14T02:57:38.112Z,27.13
2018-04-14T03:00:30.116Z,27.70
2018-04-14T03:02:58.481Z,25.80
2018-04-14T03:05:26.906Z,26.80
2018-04-14T03:07:55.353Z,27.90
2018-04-14T03:10:23.754Z,27.80
2018-04-14T03:12:52.116Z,31.13
2018-04-14T03:15:20.516Z,28.53
2018-04-14T03:17:49.033Z,28.00
2018-04-14T03:20:17.406Z,28.50
2018-04-14T03:22:45.762Z,28.63
2018-04-14T03:25:14.124Z,27.60
2018-04-14T03:27:42.493Z,27.63
2018-04-14T03:30:11.043Z,28.20
2018-04-14T03:32:39.418Z,27.43
2018-04-14T03:35:07.789Z,25.87
2018-04-14T03:37:36.176Z,25.70
2018-04-14T03:40:04.536Z,26.27
2018-04-14T03:42:32.976Z,25.77
2018-04-14T03:45:01.354Z,26.13
2018-04-14T03:47:29.823Z,24.10
2018-04-14T03:49:58.262Z,26.30
2018-04-14T03:52:26.641Z,26.80
2018-04-14T03:54:55.198Z,27.73
2018-04-14T03:57:23.563Z,26.57
2018-04-14T03:59:51.959Z,29.60
2018-04-14T04:02:20.414Z,28.23
2018-04-14T04:04:48.813Z,27.10
2018-04-14T04:07:17.278Z,28.57
2018-04-14T04:09:45.676Z,32.00
2018-04-14T04:12:14.057Z,29.93
2018-04-14T04:14:42.524Z,28.93
2018-04-14T04:17:10.897Z,28.37
2018-04-14T04:19:50.951Z,28.10
2018-04-14T04:22:31.194Z,30.33
2018-04-14T04:28:04.131Z,31.10
2018-04-14T04:30:32.282Z,28.87
2018-04-14T04:33:00.383Z,30.07
2018-04-14T04:35:28.481Z,30.60
2018-04-14T04:37:56.591Z,32.43
2018-04-14T04:40:24.871Z,31.20
2018-04-14T04:42:53.043Z,31.30
2018-04-14T04:45:21.145Z,30.50
2018-04-14T04:47:49.242Z,32.37
2018-04-14T04:50:17.414Z,31.57
2018-04-14T04:52:45.549Z,32.80
2018-04-14T04:55:13.647Z,31.73
2018-04-14T04:57:41.745Z,29.70
2018-04-14T05:00:09.844Z,31.83
2018-04-14T05:02:38.128Z,30.33
2018-04-14T05:05:06.237Z,31.70
2018-04-14T05:07:34.348Z,30.70
2018-04-14T05:10:02.464Z,30.63
2018-04-14T05:12:30.579Z,29.83
2018-04-14T05:14:58.737Z,30.10
2018-04-14T05:17:26.862Z,30.67
2018-04-14T05:19:54.976Z,31.23
2018-04-14T05:22:23.106Z,29.33
2018-04-14T05:24:51.230Z,31.47
2018-04-14T05:27:19.353Z,31.03
2018-04-14T05:29:47.477Z,29.40
2018-04-14T05:32:15.629Z,28.03
2018-04-14T05:34:43.849Z,26.77
2018-04-14T05:37:11.965Z,25.07
2018-04-14T05:39:40.159Z,25.50
2018-04-14T05:42:08.279Z,25.97
2018-04-14T05:44:36.443Z,22.87
2018-04-14T05:47:04.566Z,23.37
2018-04-14T05:49:32.651Z,21.13
2018-04-14T05:52:00.769Z,21.73
2018-04-14T05:54:29.006Z,23.20
2018-04-14T05:56:57.197Z,21.10
2018-04-14T05:59:25.318Z,21.83
2018-04-14T06:01:53.546Z,22.90
2018-04-14T06:04:21.682Z,23.37
2018-04-14T06:06:49.794Z,22.60
2018-04-14T06:09:18.102Z,22.30
2018-04-14T06:11:46.232Z,21.47
2018-04-14T06:14:14.350Z,24.57
2018-04-14T06:16:42.561Z,22.20
2018-04-14T06:19:10.730Z,20.60
2018-04-14T06:21:38.993Z,20.03
2018-04-14T06:24:07.165Z,18.73
2018-04-14T06:26:35.252Z,19.93
2018-04-14T06:29:03.344Z,18.60
2018-04-14T06:31:31.456Z,17.23
2018-04-14T06:34:00.646Z,15.20
2018-04-14T06:36:28.718Z,15.53
2018-04-14T06:38:56.798Z,14.47
2018-04-14T06:41:25.126Z,15.40
2018-04-14T06:43:53.212Z,15.37
2018-04-14T06:46:21.399Z,13.43
2018-04-14T06:48:49.486Z,13.93
2018-04-14T06:51:17.567Z,13.57
2018-04-14T06:53:45.653Z,13.63
2018-04-14T06:56:13.742Z,12.60
2018-04-14T06:58:41.905Z,13.50
2018-04-14T07:01:10.033Z,12.03
2018-04-14T07:03:38.125Z,12.10
2018-04-14T07:06:06.215Z,12.63
2018-04-14T07:08:34.347Z,11.37
2018-04-14T07:11:02.493Z,12.23
2018-04-14T07:13:30.806Z,12.40
2018-04-14T07:15:58.922Z,11.47
2018-04-14T07:18:27.074Z,11.67
2018-04-14T07:20:55.190Z,10.80
2018-04-14T07:23:23.382Z,11.73
2018-04-14T07:25:51.585Z,12.43
2018-04-14T07:28:19.704Z,12.37
2018-04-14T07:30:47.831Z,12.60
2018-04-14T07:33:15.962Z,12.40
2018-04-14T07:35:44.236Z,13.10
2018-04-14T07:38:12.369Z,13.60
2018-04-14T07:40:40.489Z,12.97
2018-04-14T07:43:08.611Z,14.30
2018-04-14T07:45:36.733Z,14.87
2018-04-14T07:48:04.885Z,14.77
2018-04-14T07:50:33.039Z,14.87
2018-04-14T07:53:01.187Z,14.87
2018-04-14T07:55:29.306Z,14.97
2018-04-14T07:57:57.483Z,14.67
2018-04-14T08:00:25.664Z,15.27
2018-04-14T08:02:53.777Z,15.50
2018-04-14T08:05:21.895Z,15.50
2018-04-14T08:07:50.036Z,13.50
2018-04-14T08:10:18.162Z,13.57
2018-04-14T08:12:46.458Z,14.10
2018-04-14T08:15:14.588Z,14.10
2018-04-14T08:17:42.706Z,14.67
2018-04-14T08:20:10.815Z,17.37
2018-04-14T08:22:38.948Z,16.73
2018-04-14T08:25:07.117Z,15.90
2018-04-14T08:27:35.237Z,16.70
2018-04-14T08:30:03.423Z,15.57
2018-04-14T08:32:31.583Z,15.57
2018-04-14T08:34:59.713Z,15.93
2018-04-14T08:37:27.934Z,15.50
2018-04-14T08:39:56.029Z,14.90
2018-04-14T08:42:24.160Z,14.50
2018-04-14T08:44:52.279Z,16.03
2018-04-14T08:47:20.397Z,18.97
2018-04-14T08:49:48.651Z,19.50
2018-04-14T08:52:16.776Z,23.10
2018-04-14T08:54:45.121Z,21.47
2018-04-14T08:57:13.208Z,22.10
2018-04-14T08:59:41.289Z,21.47
2018-04-14T09:02:10.387Z,22.40
2018-04-14T09:04:38.474Z,20.20
2018-04-14T09:07:06.744Z,19.60
2018-04-14T09:09:34.900Z,18.17
2018-04-14T09:12:02.986Z,19.63
2018-04-14T09:14:31.074Z,17.67
2018-04-14T09:16:59.177Z,18.43
2018-04-14T09:19:27.667Z,18.20
2018-04-14T09:21:56.072Z,18.37
2018-04-14T09:24:24.585Z,18.07
2018-04-14T09:26:53.129Z,18.57
2018-04-14T09:29:21.549Z,18.10
2018-04-14T09:31:49.985Z,19.10
2018-04-14T09:34:18.444Z,18.53
2018-04-14T09:36:46.852Z,17.80
2018-04-14T09:39:15.216Z,16.93
2018-04-14T09:41:43.674Z,16.93
2018-04-14T09:44:12.062Z,19.00
2018-04-14T09:46:40.472Z,17.40
2018-04-14T09:49:08.864Z,16.10
2018-04-14T09:51:37.256Z,16.40
2018-04-14T09:54:05.730Z,16.70
2018-04-14T09:56:34.117Z,16.00
2018-04-14T09:59:02.505Z,16.00
2018-04-14T10:01:30.903Z,15.03
2018-04-14T10:03:59.420Z,14.60
2018-04-14T10:06:27.903Z,15.00
2018-04-14T10:08:56.288Z,13.47
2018-04-14T10:11:24.705Z,13.57
2018-04-14T10:13:53.318Z,12.80
2018-04-14T10:16:21.812Z,12.73
2018-04-14T10:18:50.224Z,14.60
2018-04-14T10:21:18.613Z,14.17
2018-04-14T10:23:47.148Z,12.93
2018-04-14T10:26:15.517Z,13.77
2018-04-14T10:28:43.955Z,13.07
2018-04-14T10:31:12.437Z,13.80
2018-04-14T10:33:40.854Z,12.30
2018-04-14T10:36:09.231Z,12.20
2018-04-14T10:38:37.660Z,10.57
2018-04-14T10:41:06.214Z,11.13
2018-04-14T10:43:34.585Z,11.20
2018-04-14T10:46:02.986Z,11.57
2018-04-14T10:48:31.385Z,10.47
2018-04-14T10:50:59.879Z,10.30
2018-04-14T10:53:28.294Z,11.23
2018-04-14T10:55:56.758Z,11.27
2018-04-14T10:58:25.264Z,12.27
2018-04-14T11:00:53.672Z,11.63
2018-04-14T11:03:22.042Z,11.93
2018-04-14T11:05:50.428Z,9.60
2018-04-14T11:08:18.777Z,8.00
2018-04-14T11:10:47.229Z,7.97
2018-04-14T11:13:15.591Z,7.10
2018-04-14T11:15:43.948Z,6.00
2018-04-14T11:18:12.315Z,6.90
2018-04-14T11:20:40.667Z,7.63
2018-04-14T11:23:09.099Z,6.20
2018-04-14T11:25:37.461Z,6.00
2018-04-14T11:28:05.809Z,6.60
2018-04-14T11:30:34.189Z,5.00
2018-04-14T11:33:02.656Z,4.90
2018-04-14T11:35:32.120Z,5.47
2018-04-14T11:38:00.476Z,4.87
2018-04-14T11:40:28.833Z,6.27
2018-04-14T11:42:57.189Z,6.67
2018-04-14T11:45:25.545Z,6.63
2018-04-14T11:47:53.899Z,6.20
2018-04-14T11:50:22.271Z,6.73
2018-04-14T11:52:50.774Z,5.60
2018-04-14T11:55:19.141Z,6.10
2018-04-14T11:57:47.512Z,4.57
2018-04-14T12:00:15.887Z,2.73
2018-04-14T12:02:44.327Z,3.63
2018-04-14T12:05:12.826Z,3.00
2018-04-14T12:07:41.175Z,3.50
2018-04-14T12:10:09.544Z,4.03
2018-04-14T12:12:37.899Z,3.50
2018-04-14T12:15:06.272Z,4.07
2018-04-14T12:17:34.714Z,4.13
2018-04-14T12:20:03.054Z,4.30
2018-04-14T12:22:31.421Z,3.90
2018-04-14T12:24:59.773Z,3.07
2018-04-14T12:27:28.129Z,3.20
2018-04-14T12:29:56.555Z,2.83
2018-04-14T12:32:24.934Z,2.70
2018-04-14T12:34:53.286Z,3.33
2018-04-14T12:37:21.772Z,3.57
2018-04-14T12:39:50.139Z,3.60
2018-04-14T12:42:18.558Z,3.20
2018-04-14T12:44:46.926Z,3.07
2018-04-14T12:47:15.276Z,2.60
2018-04-14T12:49:43.633Z,2.50
2018-04-14T12:52:11.989Z,5.53
2018-04-14T12:54:40.433Z,5.17
2018-04-14T12:57:08.795Z,4.80
2018-04-14T12:59:37.156Z,4.77
2018-04-14T13:02:05.607Z,4.67
2018-04-14T13:04:34.001Z,4.07
2018-04-14T13:07:02.395Z,4.43
2018-04-14T13:09:30.801Z,4.63
2018-04-14T13:11:59.189Z,4.20
2018-04-14T13:14:27.634Z,5.00
2018-04-14T13:16:56.042Z,4.00
2018-04-14T13:19:24.435Z,4.00
2018-04-14T13:21:52.905Z,3.50
2018-04-14T13:24:21.301Z,3.80
2018-04-14T13:26:49.903Z,3.47
2018-04-14T13:29:19.280Z,3.73
2018-04-14T13:31:47.662Z,3.10
2018-04-14T13:34:16.055Z,3.63
2018-04-14T13:36:44.710Z,3.10
2018-04-14T13:39:13.168Z,2.43
2018-04-14T13:41:41.559Z,3.30
2018-04-14T13:44:10.033Z,3.33
2018-04-14T13:46:38.446Z,3.03
2018-04-14T13:49:06.837Z,2.57
2018-04-14T13:51:35.373Z,3.30
2018-04-14T13:54:03.765Z,3.13
2018-04-14T13:56:33.041Z,2.83
2018-04-14T13:59:01.403Z,2.80
2018-04-14T14:01:29.774Z,3.60
2018-04-14T14:03:58.199Z,4.00
2018-04-14T14:06:26.554Z,3.50
2018-04-14T14:08:54.934Z,2.70
2018-04-14T14:11:23.304Z,2.70
2018-04-14T14:13:51.663Z,3.20
2018-04-14T14:16:20.038Z,2.50
2018-04-14T14:18:48.391Z,2.90
2018-04-14T14:21:16.794Z,3.00
2018-04-14T14:23:45.255Z,3.80
2018-04-14T14:26:13.706Z,3.30
2018-04-14T14:28:42.182Z,3.20
2018-04-14T14:31:10.563Z,3.10
2018-04-14T14:33:38.942Z,3.17
2018-04-14T14:36:07.346Z,3.27
2018-04-14T14:38:35.902Z,3.50
2018-04-14T14:41:04.324Z,3.77
2018-04-14T14:43:32.838Z,3.30
2018-04-14T14:46:01.294Z,3.40
2018-04-14T14:48:29.826Z,3.80
2018-04-14T14:50:58.202Z,3.40
2018-04-14T14:53:26.614Z,3.27
2018-04-14T14:55:55.164Z,3.30
2018-04-14T14:58:23.561Z,3.60
2018-04-14T15:00:51.950Z,3.13
2018-04-14T15:03:20.411Z,3.47
2018-04-14T15:05:48.872Z,3.30
2018-04-14T15:08:17.264Z,3.80
2018-04-14T15:10:45.659Z,3.50
2018-04-14T15:13:14.128Z,3.57
2018-04-14T15:15:42.545Z,3.23
2018-04-14T15:18:10.993Z,3.40
2018-04-14T15:20:39.368Z,3.43
2018-04-14T15:23:07.842Z,3.37
2018-04-14T15:25:36.479Z,4.00
2018-04-14T15:28:04.868Z,4.00
2018-04-14T15:30:33.340Z,3.87
2018-04-14T15:33:01.732Z,3.30
2018-04-14T15:35:30.251Z,4.60
2018-04-14T15:37:58.650Z,4.30
2018-04-14T15:40:27.038Z,4.60
2018-04-14T15:42:55.430Z,4.20
2018-04-14T15:45:23.818Z,4.33
2018-04-14T15:47:52.280Z,4.80
2018-04-14T15:50:20.673Z,4.10
2018-04-14T15:52:49.042Z,4.37
2018-04-14T15:55:17.438Z,4.50
2018-04-14T15:57:45.851Z,3.90
2018-04-14T16:00:14.387Z,3.77
2018-04-14T16:02:42.793Z,3.50
2018-04-14T16:05:11.178Z,3.40
2018-04-14T16:07:39.610Z,3.30
2018-04-14T16:10:08.009Z,3.80
2018-04-14T16:12:36.573Z,3.57
2018-04-14T16:15:04.974Z,3.43
2018-04-14T16:17:33.383Z,3.50
2018-04-14T16:20:01.797Z,3.27
2018-04-14T16:22:30.285Z,3.20
2018-04-14T16:24:58.797Z,3.23
2018-04-14T16:27:27.194Z,2.90
2018-04-14T16:29:55.648Z,3.87
2018-04-14T16:32:24.041Z,3.33
2018-04-14T16:34:52.391Z,4.00
2018-04-14T16:37:20.839Z,3.30
2018-04-14T16:39:49.193Z,3.13
2018-04-14T16:42:17.613Z,3.40
2018-04-14T16:44:46.003Z,3.20
2018-04-14T16:47:14.371Z,3.10
2018-04-14T16:49:42.748Z,2.50
2018-04-14T16:52:11.120Z,2.93
2018-04-14T16:54:39.494Z,2.70
2018-04-14T16:57:07.877Z,2.30
2018-04-14T16:59:36.414Z,2.50
2018-04-14T17:02:04.933Z,1.90
2018-04-14T17:04:33.355Z,2.03
2018-04-14T17:07:01.761Z,17.80
2018-04-14T17:09:30.482Z,34.73
2018-04-14T17:11:59.505Z,37.50
2018-04-14T17:14:27.998Z,35.80
2018-04-14T17:16:56.417Z,40.90
2018-04-14T17:19:24.827Z,39.30
2018-04-14T17:21:53.262Z,41.43
2018-04-14T17:24:21.774Z,40.53
2018-04-14T17:26:50.157Z,40.63
2018-04-14T17:29:18.573Z,43.87
2018-04-14T17:31:47.025Z,42.40
2018-04-14T17:34:15.441Z,45.43
2018-04-14T17:36:44.521Z,46.20
2018-04-14T17:39:13.644Z,39.33
2018-04-14T17:41:42.124Z,37.07
2018-04-14T17:44:10.540Z,40.17
2018-04-14T17:46:39.075Z,40.87
2018-04-14T17:49:07.488Z,34.10
2018-04-14T17:51:35.925Z,29.90
2018-04-14T17:54:04.337Z,33.10
2018-04-14T17:56:32.760Z,32.17
2018-04-14T17:59:01.866Z,30.27
2018-04-14T18:01:30.332Z,28.87
2018-04-14T18:03:58.808Z,27.93
2018-04-14T18:06:27.231Z,18.00
2018-04-14T18:08:55.640Z,13.40
2018-04-14T18:11:24.184Z,13.57
2018-04-14T18:13:52.600Z,11.00
2018-04-14T18:16:21.012Z,10.63
2018-04-14T18:18:49.507Z,10.73
2018-04-14T18:21:17.932Z,11.13
2018-04-14T18:23:46.522Z,10.37
2018-04-14T18:26:15.506Z,10.60
2018-04-14T18:28:43.942Z,9.93
2018-04-14T18:31:12.367Z,9.97
2018-04-14T18:33:40.785Z,12.70
2018-04-14T18:36:09.277Z,11.50
2018-04-14T18:38:37.688Z,12.90
2018-04-14T18:41:06.092Z,11.10
2018-04-14T18:43:34.631Z,11.07
2018-04-14T18:46:03.072Z,11.60
2018-04-14T18:48:31.770Z,11.60
2018-04-14T18:51:00.475Z,11.93
2018-04-14T18:53:28.871Z,11.70
2018-04-14T18:55:57.348Z,11.70
2018-04-14T18:58:25.722Z,8.77
2018-04-14T19:00:54.188Z,11.50
2018-04-14T19:03:22.584Z,8.97
2018-04-14T19:05:51.012Z,8.80
2018-04-14T19:08:19.391Z,9.70
2018-04-14T19:10:47.771Z,9.50
2018-04-14T19:13:16.230Z,9.27
2018-04-14T19:15:46.459Z,8.50
2018-04-14T19:18:14.831Z,9.83
2018-04-14T19:20:43.206Z,5.80
2018-04-14T19:23:11.584Z,5.53
2018-04-14T19:25:40.050Z,5.30
2018-04-14T19:28:08.471Z,4.93
2018-04-14T19:30:36.877Z,3.70
2018-04-14T19:33:05.370Z,4.10
2018-04-14T19:35:33.773Z,3.30
2018-04-14T19:38:02.556Z,3.40
2018-04-14T19:40:30.946Z,6.00
2018-04-14T19:42:59.403Z,5.93
2018-04-14T19:45:27.821Z,8.87
2018-04-14T19:47:56.238Z,9.03
2018-04-14T19:50:24.640Z,8.70
2018-04-14T19:52:53.057Z,7.43
2018-04-14T19:55:21.507Z,5.10
2018-04-14T19:57:49.920Z,7.50
2018-04-14T20:00:18.347Z,7.10
2018-04-14T20:02:46.755Z,6.97
2018-04-14T20:05:15.719Z,6.90
2018-04-14T20:07:44.305Z,10.10
2018-04-14T20:10:12.739Z,10.67
2018-04-14T20:12:41.331Z,8.37
2018-04-14T20:15:09.766Z,9.40
2018-04-14T20:17:38.282Z,11.23
2018-04-14T20:20:06.811Z,10.07
2018-04-14T20:22:35.248Z,10.60
2018-04-14T20:25:03.656Z,11.50
2018-04-14T20:27:32.068Z,11.83
2018-04-14T20:30:00.485Z,12.57
2018-04-14T20:32:29.047Z,12.93
2018-04-14T20:34:57.935Z,11.13
2018-04-14T20:37:26.614Z,11.33
2018-04-14T20:39:55.140Z,7.67
2018-04-14T20:42:23.551Z,7.30
2018-04-14T20:44:52.074Z,7.27
2018-04-14T20:47:20.489Z,8.70
2018-04-14T20:49:49.055Z,8.23
2018-04-14T20:52:17.451Z,8.17
2018-04-14T20:54:46.808Z,6.03
2018-04-14T20:57:15.517Z,6.80
2018-04-14T20:59:43.913Z,6.70
2018-04-14T21:02:12.357Z,4.90
2018-04-14T21:04:40.770Z,4.00
2018-04-14T21:07:09.264Z,3.90
2018-04-14T21:09:37.643Z,3.67
2018-04-14T21:12:06.053Z,3.07
2018-04-14T21:14:34.571Z,3.00
2018-04-14T21:17:02.962Z,2.90
2018-04-14T21:19:32.195Z,4.33
2018-04-14T21:22:00.847Z,3.10
2018-04-14T21:24:29.251Z,3.73
2018-04-14T21:26:57.625Z,3.97
2018-04-14T21:29:25.994Z,3.17
2018-04-14T21:31:54.412Z,3.87
2018-04-14T21:34:22.888Z,3.90
2018-04-14T21:36:51.351Z,3.43
2018-04-14T21:39:19.745Z,3.67
2018-04-14T21:41:48.112Z,4.70
2018-04-14T21:44:16.817Z,3.80
2018-04-14T21:46:45.486Z,4.10
2018-04-14T21:49:13.868Z,4.47
2018-04-14T21:51:42.360Z,4.57
2018-04-14T21:54:10.719Z,3.60
2018-04-14T21:56:39.133Z,4.37
2018-04-14T21:59:07.523Z,4.87
2018-04-14T22:01:35.980Z,4.60
2018-04-14T22:04:04.383Z,4.97
2018-04-14T22:06:33.003Z,4.47
2018-04-14T22:09:01.448Z,4.53
2018-04-14T22:11:30.113Z,3.77
2018-04-14T22:13:58.601Z,4.43
2018-04-14T22:16:27.016Z,4.00
2018-04-14T22:18:55.401Z,4.90
2018-04-14T22:21:23.788Z,4.03
2018-04-14T22:23:52.150Z,4.30
2018-04-14T22:26:20.578Z,4.97
2018-04-14T22:28:49.038Z,4.57
2018-04-14T22:31:17.487Z,4.67
2018-04-14T22:33:46.121Z,3.47
2018-04-14T22:36:14.489Z,3.27
2018-04-14T22:38:42.946Z,4.10
2018-04-14T22:41:11.307Z,3.27
2018-04-14T22:43:39.688Z,4.03
2018-04-14T22:46:08.055Z,4.17
2018-04-14T22:48:36.422Z,4.37
2018-04-14T22:51:04.937Z,4.73
2018-04-14T22:53:33.305Z,4.23
2018-04-14T22:56:01.704Z,4.70
2018-04-14T22:58:30.116Z,4.60
2018-04-14T23:00:58.527Z,4.07
2018-04-14T23:03:26.877Z,3.67
2018-04-14T23:05:55.324Z,4.07
2018-04-14T23:08:23.684Z,4.10
2018-04-14T23:10:52.134Z,3.13
2018-04-14T23:13:20.494Z,4.00
2018-04-14T23:15:48.874Z,3.40
2018-04-14T23:18:17.289Z,3.20
2018-04-14T23:20:45.707Z,3.67
2018-04-14T23:23:14.753Z,3.40
2018-04-14T23:25:43.552Z,3.80
2018-04-14T23:28:12.101Z,3.00
2018-04-14T23:30:40.561Z,3.10
2018-04-14T23:33:08.948Z,3.47
2018-04-14T23:35:37.457Z,3.90
2018-04-14T23:38:05.855Z,4.33
2018-04-14T23:40:34.310Z,4.77
2018-04-14T23:43:02.726Z,4.40
2018-04-14T23:45:31.082Z,4.50
2018-04-14T23:47:59.467Z,5.93
2018-04-14T23:50:27.943Z,5.07
2018-04-14T23:52:56.319Z,4.97
2018-04-14T23:55:24.698Z,4.57
2018-04-14T23:57:53.350Z,5.30
